Time;durP1;ratioP1;P1;durP2;ratioP2;P2;SDS_P1;SDS_P2;PMS_P1;PMS_P2;Temp;Humidity;BMP_temperature;BMP_pressure;BME280_temperature;BME280_humidity;BME280_pressure;Samples;Min_cycle;Max_cycle;Signal;HPM_P1;HPM_P2
2021/12/09 00:00:37;;;;;;;;;;;;;;;1.12;89.30;99600.81;4500611;31;20002;-69
2021/12/09 00:03:07;;;;;;;;;;;;;;;1.12;89.25;99602.53;4500678;31;20651;-70
2021/12/09 00:05:35;;;;;;;;;;;;;;;1.04;89.80;99593.81;4500846;31;19971;-70
2021/12/09 00:08:04;;;;;;;;;;;;;;;1.06;89.53;99598.16;4500813;31;20028;-70
2021/12/09 00:10:33;;;;;;;;;;;;;;;1.03;89.95;99589.47;4500519;31;20039;-69
2021/12/09 00:13:01;;;;;;;;;;;;;;;1.01;89.88;99593.75;4500781;31;20041;-70
2021/12/09 00:15:28;;;;;;;;;;;;;;;0.93;90.61;99596.25;4500807;31;19983;-70
2021/12/09 00:17:55;;;;;;;;;;;;;;;0.89;90.73;99608.28;4502853;31;19985;-70
2021/12/09 00:20:23;;;;;;;;;;;;;;;0.92;90.76;99612.66;4503060;31;19997;-70
2021/12/09 00:22:50;;;;;;;;;;;;;;;0.99;90.36;99603.22;4503006;31;20406;-70
2021/12/09 00:25:18;;;;;;;;;;;;;;;0.91;90.80;99614.34;4502748;31;20054;-70
2021/12/09 00:27:45;;;;;;;;;;;;;;;0.89;90.84;99615.22;4502855;31;19979;-70
2021/12/09 00:30:13;;;;;;;;;;;;;;;0.97;90.31;99623.09;4502684;31;19998;-70
2021/12/09 00:32:40;;;;;;;;;;;;;;;1.00;90.13;99613.63;4502854;31;20066;-70
2021/12/09 00:35:08;;;;;;;;;;;;;;;0.99;90.52;99595.44;4502793;31;20316;-70
2021/12/09 00:37:40;;;;;;;;;;;;;;;0.90;90.83;99575.44;4502804;31;20467;-70
2021/12/09 00:40:08;;;;;;;;;;;;;;;0.90;90.81;99573.72;4502628;31;20002;-70
2021/12/09 00:42:35;;;;;;;;;;;;;;;0.84;91.02;99573.63;4502689;31;19994;-70
2021/12/09 00:45:03;;;;;;;;;;;;;;;0.78;91.39;99568.38;4502837;31;19993;-70
2021/12/09 00:47:30;;;;;;;;;;;;;;;0.71;91.66;99570.00;4502767;31;20030;-70
2021/12/09 00:49:58;;;;;;;;;;;;;;;0.70;91.97;99551.81;4502583;31;19987;-70
2021/12/09 00:52:26;;;;;;;;;;;;;;;0.74;91.79;99551.00;4502618;31;20643;-70
2021/12/09 00:54:55;;;;;;;;;;;;;;;0.70;91.73;99546.63;4502527;31;20367;-70
2021/12/09 00:57:23;;;;;;;;;;;;;;;0.70;91.85;99538.84;4502547;31;19979;-70
2021/12/09 00:59:50;;;;;;;;;;;;;;;0.70;91.92;99534.53;4502622;31;20441;-70
2021/12/09 01:02:18;;;;;;;;;;;;;;;0.78;91.44;99534.66;4502234;31;19995;-70
2021/12/09 01:04:46;;;;;;;;;;;;;;;0.75;91.58;99537.22;4502530;31;20010;-70
2021/12/09 01:07:14;;;;;;;;;;;;;;;0.70;91.93;99536.25;4502522;31;19980;-70
2021/12/09 01:09:42;;;;;;;;;;;;;;;0.67;92.11;99559.53;4502519;31;19987;-70
2021/12/09 01:12:10;;;;;;;;;;;;;;;0.76;91.81;99559.69;4502540;31;20337;-70
2021/12/09 01:14:37;;;;;;;;;;;;;;;0.75;91.72;99560.56;4502572;31;19979;-70
2021/12/09 01:17:06;;;;;;;;;;;;;;;0.65;92.32;99554.34;4502569;31;20078;-70
2021/12/09 01:19:34;;;;;;;;;;;;;;;0.67;92.50;99551.78;4502423;31;19983;-70
2021/12/09 01:22:02;;;;;;;;;;;;;;;0.65;92.50;99556.94;4502428;31;20042;-70
2021/12/09 01:24:29;;;;;;;;;;;;;;;0.64;92.37;99554.34;4502461;31;19971;-70
2021/12/09 01:26:58;;;;;;;;;;;;;;;0.60;92.60;99556.03;4502352;31;19975;-70
2021/12/09 01:29:38;;;;;;;;;;;;;;;0.62;92.45;99554.31;4502390;31;20350;-70
2021/12/09 01:32:08;;;;;;;;;;;;;;;0.70;92.37;99552.69;4502420;31;20421;-70
2021/12/09 01:34:36;;;;;;;;;;;;;;;0.67;92.15;99538.81;4502387;31;20341;-70
2021/12/09 01:37:04;;;;;;;;;;;;;;;0.71;91.99;99535.44;4502273;31;20001;-70
2021/12/09 01:39:33;;;;;;;;;;;;;;;0.69;92.08;99539.72;4502279;31;20054;-70
2021/12/09 01:42:00;;;;;;;;;;;;;;;0.65;92.48;99514.59;4502291;31;20020;-70
2021/12/09 01:44:28;;;;;;;;;;;;;;;0.64;92.52;99505.09;4502164;31;19975;-70
2021/12/09 01:46:56;;;;;;;;;;;;;;;0.68;91.90;99492.19;4502215;31;20013;-70
2021/12/09 01:49:24;;;;;;;;;;;;;;;0.59;92.42;99505.00;4502277;31;19983;-70
2021/12/09 01:51:52;;;;;;;;;;;;;;;0.47;93.02;99499.66;4502371;31;19987;-70
2021/12/09 01:54:23;;;;;;;;;;;;;;;0.42;92.97;99499.56;4502173;31;19987;-70
2021/12/09 01:56:50;;;;;;;;;;;;;;;0.41;93.23;99484.00;4502277;31;20398;-70
2021/12/09 01:59:18;;;;;;;;;;;;;;;0.30;93.83;99477.81;4502281;31;20006;-70
2021/12/09 02:01:45;;;;;;;;;;;;;;;0.37;93.11;99480.50;4501911;31;20046;-69
2021/12/09 02:04:13;;;;;;;;;;;;;;;0.42;92.80;99493.53;4502145;31;20035;-70
2021/12/09 02:06:41;;;;;;;;;;;;;;;0.46;92.47;99488.44;4502175;31;20372;-70
2021/12/09 02:09:09;;;;;;;;;;;;;;;0.40;92.79;99480.56;4501894;31;20373;-69
2021/12/09 02:11:38;;;;;;;;;;;;;;;0.42;92.52;99465.88;4502363;31;20378;-70
2021/12/09 02:14:05;;;;;;;;;;;;;;;0.37;92.93;99451.13;4502069;31;20035;-70
2021/12/09 02:16:33;;;;;;;;;;;;;;;0.25;93.38;99423.34;4502014;31;20058;-70
2021/12/09 02:19:01;;;;;;;;;;;;;;;0.23;93.38;99427.63;4502094;31;20022;-70
2021/12/09 02:21:30;;;;;;;;;;;;;;;0.16;93.47;99443.94;4502176;31;20409;-70
2021/12/09 02:24:09;;;;;;;;;;;;;;;0.14;93.61;99471.50;4502075;31;19982;-70
2021/12/09 02:26:38;;;;;;;;;;;;;;;0.17;93.61;99474.16;4502117;31;19997;-70
2021/12/09 02:29:06;;;;;;;;;;;;;;;0.16;93.74;99469.81;4501952;31;19998;-70
2021/12/09 02:31:35;;;;;;;;;;;;;;;0.17;93.97;99453.44;4502035;31;20039;-70
2021/12/09 02:34:03;;;;;;;;;;;;;;;0.19;93.91;99449.16;4501920;31;20327;-70
2021/12/09 02:36:36;;;;;;;;;;;;;;;0.20;93.88;99446.56;4501849;31;19995;-70
2021/12/09 02:39:04;;;;;;;;;;;;;;;0.16;94.13;99446.50;4501061;31;19995;-70
2021/12/09 02:41:33;;;;;;;;;;;;;;;0.19;94.12;99449.16;4501821;31;20653;-69
2021/12/09 02:44:03;;;;;;;;;;;;;;;0.24;93.90;99457.84;4501883;31;19967;-70
2021/12/09 02:46:35;;;;;;;;;;;;;;;0.28;93.94;99471.72;4501932;31;19997;-70
2021/12/09 02:49:04;;;;;;;;;;;;;;;0.32;93.34;99489.03;4501810;31;19984;-70
2021/12/09 02:51:33;;;;;;;;;;;;;;;0.37;93.49;99510.75;4501713;31;20013;-70
2021/12/09 02:54:00;;;;;;;;;;;;;;;0.38;93.34;99496.91;4501745;31;19979;-70
2021/12/09 02:56:27;;;;;;;;;;;;;;;0.42;93.16;99465.88;4501762;31;20010;-70
2021/12/09 02:58:55;;;;;;;;;;;;;;;0.43;92.99;99449.50;4501509;31;20009;-70
2021/12/09 03:01:25;;;;;;;;;;;;;;;0.45;92.88;99458.16;4501564;31;20271;-70
2021/12/09 03:03:57;;;;;;;;;;;;;;;0.29;93.53;99466.56;4501633;31;19975;-69
2021/12/09 03:06:43;;;;;;;;;;;;;;;0.27;93.95;99470.84;4501832;31;20368;-70
2021/12/09 03:09:14;;;;;;;;;;;;;;;0.32;93.75;99450.19;4501730;31;20672;-70
2021/12/09 03:11:44;;;;;;;;;;;;;;;0.38;93.46;99434.72;4501519;31;20049;-70
2021/12/09 03:14:11;;;;;;;;;;;;;;;0.39;93.46;99452.91;4501540;31;20461;-70
2021/12/09 03:16:39;;;;;;;;;;;;;;;0.26;94.31;99461.34;4501511;31;19975;-70
2021/12/09 03:19:08;;;;;;;;;;;;;;;0.25;94.41;99475.16;4501300;31;19987;-70
2021/12/09 03:21:38;;;;;;;;;;;;;;;0.28;94.55;99474.31;4501225;31;20677;-70
2021/12/09 03:24:07;;;;;;;;;;;;;;;0.33;94.34;99473.53;4501287;31;20374;-70
2021/12/09 03:26:36;;;;;;;;;;;;;;;0.24;94.81;99479.44;4501335;31;20306;-70
2021/12/09 03:29:08;;;;;;;;;;;;;;;0.32;94.44;99482.19;4501351;31;19998;-70
2021/12/09 03:31:37;;;;;;;;;;;;;;;0.38;94.18;99466.69;4501197;31;19991;-70
2021/12/09 03:34:05;;;;;;;;;;;;;;;0.37;94.26;99446.81;4501293;31;19989;-70
2021/12/09 03:36:32;;;;;;;;;;;;;;;0.30;94.70;99449.31;4501004;31;19999;-70
2021/12/09 03:39:02;;;;;;;;;;;;;;;0.39;94.28;99445.13;4500995;31;19979;-70
2021/12/09 03:41:29;;;;;;;;;;;;;;;0.40;94.16;99449.47;4500992;31;20005;-70
2021/12/09 03:43:57;;;;;;;;;;;;;;;0.47;93.96;99459.06;4501021;31;19979;-70
2021/12/09 03:46:24;;;;;;;;;;;;;;;0.43;94.14;99457.28;4500980;31;19979;-70
2021/12/09 03:48:51;;;;;;;;;;;;;;;0.55;93.71;99461.75;4501046;31;20017;-70
2021/12/09 03:51:19;;;;;;;;;;;;;;;0.44;94.16;99455.56;4502038;31;20010;-70
2021/12/09 03:53:46;;;;;;;;;;;;;;;0.47;94.18;99460.78;4503167;31;20406;-70
2021/12/09 03:56:14;;;;;;;;;;;;;;;0.48;94.18;99473.75;4503145;31;20437;-70
2021/12/09 03:58:41;;;;;;;;;;;;;;;0.43;94.44;99471.97;4502923;31;19988;-70
2021/12/09 04:01:08;;;;;;;;;;;;;;;0.38;94.82;99474.47;4502937;31;19987;-70
2021/12/09 04:03:36;;;;;;;;;;;;;;;0.41;94.84;99458.97;4503160;31;19976;-70
2021/12/09 04:06:05;;;;;;;;;;;;;;;0.54;94.07;99453.97;4502972;31;20287;-70
2021/12/09 04:08:33;;;;;;;;;;;;;;;0.59;93.73;99453.16;4502950;31;20398;-69
2021/12/09 04:11:01;;;;;;;;;;;;;;;0.57;93.75;99461.78;4503052;31;20444;-70
2021/12/09 04:13:30;;;;;;;;;;;;;;;0.59;93.60;99453.16;4502798;31;20310;-70
2021/12/09 04:15:58;;;;;;;;;;;;;;;0.73;92.94;99450.75;4502932;31;19979;-70
2021/12/09 04:18:25;;;;;;;;;;;;;;;0.68;93.20;99452.44;4502949;31;19979;-70
2021/12/09 04:20:53;;;;;;;;;;;;;;;0.61;93.62;99443.69;4502960;31;20006;-70
2021/12/09 04:23:20;;;;;;;;;;;;;;;0.62;93.49;99442.84;4502835;31;20011;-70
2021/12/09 04:25:47;;;;;;;;;;;;;;;0.55;93.88;99456.56;4502846;31;19971;-70
2021/12/09 04:28:15;;;;;;;;;;;;;;;0.66;93.27;99459.28;4502807;31;20032;-70
2021/12/09 04:30:42;;;;;;;;;;;;;;;0.67;93.20;99453.25;4502972;31;20322;-70
2021/12/09 04:33:10;;;;;;;;;;;;;;;0.63;93.50;99454.06;4502892;31;20663;-70
2021/12/09 04:35:37;;;;;;;;;;;;;;;0.57;94.00;99451.41;4502829;31;20074;-70
2021/12/09 04:38:05;;;;;;;;;;;;;;;0.62;93.39;99442.84;4502646;31;20290;-70
2021/12/09 04:40:32;;;;;;;;;;;;;;;0.66;93.44;99439.41;4502658;31;20411;-70
2021/12/09 04:43:00;;;;;;;;;;;;;;;0.68;93.19;99440.31;4502604;31;19989;-70
2021/12/09 04:45:28;;;;;;;;;;;;;;;0.74;93.03;99442.09;4502691;31;20032;-70
2021/12/09 04:47:56;;;;;;;;;;;;;;;0.79;92.61;99430.09;4502643;31;20018;-70
2021/12/09 04:50:23;;;;;;;;;;;;;;;0.78;92.55;99420.56;4502601;31;19987;-70
2021/12/09 04:52:51;;;;;;;;;;;;;;;0.73;92.88;99424.81;4500446;31;20020;-70
2021/12/09 04:55:19;;;;;;;;;;;;;;;0.75;92.73;99435.22;4500411;31;19976;-70
2021/12/09 04:57:46;;;;;;;;;;;;;;;0.73;92.83;99432.59;4502402;31;19991;-70
2021/12/09 05:00:16;;;;;;;;;;;;;;;0.81;92.47;99428.38;4501604;31;20024;-70
2021/12/09 05:05:36;;;;;;;;;;;;;;;0.84;92.26;99436.19;4500458;31;19983;-70
2021/12/09 05:08:08;;;;;;;;;;;;;;;0.84;92.33;99453.47;4500601;31;19984;-70
2021/12/09 05:10:54;;;;;;;;;;;;;;;0.84;92.27;99445.69;4486284;31;20039;-70
2021/12/09 05:13:23;;;;;;;;;;;;;;;0.91;92.03;99445.78;4502557;31;19994;-70
2021/12/09 05:15:50;;;;;;;;;;;;;;;1.04;91.11;99443.34;4501973;31;19983;-70
2021/12/09 05:18:19;;;;;;;;;;;;;;;1.05;91.07;99456.31;4503262;31;20012;-69
2021/12/09 05:20:47;;;;;;;;;;;;;;;1.00;91.27;99436.37;4502538;31;20079;-70
2021/12/09 05:23:15;;;;;;;;;;;;;;;0.94;91.42;99440.62;4502239;31;20357;-70
2021/12/09 05:25:43;;;;;;;;;;;;;;;0.99;91.25;99448.50;4502299;31;20310;-70
2021/12/09 05:28:15;;;;;;;;;;;;;;;0.98;91.08;99451.03;4502025;31;20003;-70
2021/12/09 05:33:30;;;;;;;;;;;;;;;0.98;90.65;99422.50;4502609;31;19987;-70
2021/12/09 05:35:57;;;;;;;;;;;;;;;1.01;90.57;99427.75;4502091;31;20023;-70
2021/12/09 05:38:25;;;;;;;;;;;;;;;1.03;90.57;99428.63;4502144;31;20028;-70
2021/12/09 05:40:53;;;;;;;;;;;;;;;0.95;90.57;99416.47;4502593;31;19983;-69
2021/12/09 05:43:22;;;;;;;;;;;;;;;0.93;90.66;99410.38;4502030;31;20390;-70
2021/12/09 05:45:49;;;;;;;;;;;;;;;0.85;91.00;99403.34;4501865;31;19979;-69
2021/12/09 05:48:17;;;;;;;;;;;;;;;0.90;90.91;99402.56;4502158;31;19983;-70
2021/12/09 05:50:45;;;;;;;;;;;;;;;0.88;91.03;99393.91;4487209;31;20041;-70
2021/12/09 05:53:12;;;;;;;;;;;;;;;0.83;90.99;99392.97;4502306;31;19975;-70
2021/12/09 05:55:44;;;;;;;;;;;;;;;0.85;91.13;99375.72;4502012;31;20267;-70
2021/12/09 05:58:19;;;;;;;;;;;;;;;0.80;91.17;99366.13;4501975;31;20386;-69
2021/12/09 06:00:48;;;;;;;;;;;;;;;0.72;91.53;99360.87;4496567;31;171032;-69
2021/12/09 06:03:19;;;;;;;;;;;;;;;0.80;91.51;99356.62;4501739;31;19986;-70
2021/12/09 06:05:47;;;;;;;;;;;;;;;0.82;91.29;99362.72;4501818;31;20045;-69
2021/12/09 06:08:15;;;;;;;;;;;;;;;0.80;91.46;99374.78;4502081;31;19995;-70
2021/12/09 06:10:42;;;;;;;;;;;;;;;0.92;91.31;99371.47;4501829;31;20006;-70
2021/12/09 06:13:09;;;;;;;;;;;;;;;0.84;91.59;99363.56;4500522;31;19971;-69
2021/12/09 06:15:37;;;;;;;;;;;;;;;0.80;92.24;99366.13;4501776;31;20390;-69
2021/12/09 06:18:04;;;;;;;;;;;;;;;0.86;92.05;99368.78;4501619;31;20091;-69
2021/12/09 06:20:32;;;;;;;;;;;;;;;0.86;92.10;99356.69;4501754;31;20385;-70
2021/12/09 06:22:59;;;;;;;;;;;;;;;0.88;92.25;99354.09;4502123;31;19982;-70
2021/12/09 06:25:26;;;;;;;;;;;;;;;0.91;92.19;99355.00;4501795;31;19990;-70
2021/12/09 06:27:55;;;;;;;;;;;;;;;0.90;92.20;99350.69;4501724;31;19984;-70
2021/12/09 06:30:22;;;;;;;;;;;;;;;0.89;92.17;99353.28;4501886;31;19986;-69
2021/12/09 06:32:50;;;;;;;;;;;;;;;0.83;92.43;99345.41;4499708;31;19983;-70
2021/12/09 06:35:18;;;;;;;;;;;;;;;0.87;92.51;99336.81;4500456;31;20004;-70
2021/12/09 06:37:47;;;;;;;;;;;;;;;0.95;92.14;99335.16;4501073;31;19991;-69
2021/12/09 06:40:16;;;;;;;;;;;;;;;0.95;91.97;99327.38;4500200;31;20054;-69
2021/12/09 06:42:44;;;;;;;;;;;;;;;0.90;92.06;99335.12;4501073;31;20075;-69
2021/12/09 06:45:12;;;;;;;;;;;;;;;0.87;92.20;99348.06;4501824;31;19983;-69
2021/12/09 06:47:40;;;;;;;;;;;;;;;0.88;92.33;99347.22;4502460;31;19987;-70
2021/12/09 06:50:09;;;;;;;;;;;;;;;0.88;92.22;99344.63;4501875;31;19992;-69
2021/12/09 06:52:36;;;;;;;;;;;;;;;0.98;91.69;99349.88;4501021;31;19975;-69
2021/12/09 06:55:04;;;;;;;;;;;;;;;0.90;92.30;99362.78;4501076;31;20606;-69
2021/12/09 06:57:31;;;;;;;;;;;;;;;0.93;91.79;99368.87;4500924;31;20707;-70
2021/12/09 06:59:59;;;;;;;;;;;;;;;0.99;91.12;99377.56;4501590;31;20003;-70
2021/12/09 07:02:26;;;;;;;;;;;;;;;0.91;91.79;99370.56;4501808;31;19971;-70
2021/12/09 07:04:54;;;;;;;;;;;;;;;0.93;91.65;99373.19;4501870;31;19983;-70
2021/12/09 07:07:21;;;;;;;;;;;;;;;0.89;91.45;99368.84;4502288;31;20634;-69
2021/12/09 07:09:49;;;;;;;;;;;;;;;0.91;91.25;99377.47;4502354;31;19983;-70
2021/12/09 07:12:16;;;;;;;;;;;;;;;0.96;91.19;99378.41;4502064;31;19975;-69
2021/12/09 07:14:44;;;;;;;;;;;;;;;0.93;91.10;99389.63;4502051;31;20055;-70
2021/12/09 07:17:11;;;;;;;;;;;;;;;0.86;91.20;99386.94;4502049;31;20006;-70
2021/12/09 07:19:39;;;;;;;;;;;;;;;0.84;91.38;99384.31;4502194;31;19983;-69
2021/12/09 07:22:06;;;;;;;;;;;;;;;0.91;91.19;99375.75;4501776;31;19990;-68
2021/12/09 07:24:34;;;;;;;;;;;;;;;0.85;91.60;99370.53;4502481;31;19979;-68
2021/12/09 07:27:01;;;;;;;;;;;;;;;0.91;91.44;99357.59;4503919;31;20634;-69
2021/12/09 07:29:29;;;;;;;;;;;;;;;0.88;91.69;99357.59;4496444;31;20420;-68
2021/12/09 07:31:56;;;;;;;;;;;;;;;0.83;92.15;99351.47;4488151;31;20383;-68
2021/12/09 07:34:24;;;;;;;;;;;;;;;0.83;92.12;99354.06;4488009;31;19991;-69
2021/12/09 07:36:51;;;;;;;;;;;;;;;0.85;92.08;99349.78;4487979;31;20050;-68
2021/12/09 07:39:19;;;;;;;;;;;;;;;0.79;92.52;99348.84;4488320;31;19991;-67
2021/12/09 07:41:46;;;;;;;;;;;;;;;0.76;93.18;99352.25;4487576;31;19975;-68
2021/12/09 07:44:17;;;;;;;;;;;;;;;0.81;93.26;99349.72;4487882;31;20003;-69
2021/12/09 07:46:45;;;;;;;;;;;;;;;0.84;93.28;99345.41;4487415;31;20024;-68
2021/12/09 07:49:13;;;;;;;;;;;;;;;0.86;93.79;99333.34;4487677;31;19987;-69
2021/12/09 07:51:44;;;;;;;;;;;;;;;0.98;92.91;99336.91;4487827;31;20070;-68
2021/12/09 07:54:12;;;;;;;;;;;;;;;1.03;92.90;99335.25;4488032;31;19991;-69
2021/12/09 07:56:39;;;;;;;;;;;;;;;0.97;92.82;99333.47;4487654;31;20002;-69
2021/12/09 07:59:07;;;;;;;;;;;;;;;0.91;93.28;99329.06;4487963;31;19995;-68
2021/12/09 08:01:35;;;;;;;;;;;;;;;1.01;93.53;99324.84;4487986;31;19977;-68
2021/12/09 08:04:03;;;;;;;;;;;;;;;0.98;93.26;99322.22;4487469;31;20796;-68
2021/12/09 08:06:30;;;;;;;;;;;;;;;1.03;93.29;99317.09;4473371;31;20336;-68
2021/12/09 08:08:58;;;;;;;;;;;;;;;0.99;93.91;99312.72;4487784;31;20315;-69
2021/12/09 08:11:25;;;;;;;;;;;;;;;1.07;93.47;99324.06;4487515;31;20010;-68
2021/12/09 08:13:52;;;;;;;;;;;;;;;1.23;92.00;99320.72;4488020;31;20006;-69
2021/12/09 08:16:20;;;;;;;;;;;;;;;1.07;92.60;99313.69;4487923;31;19991;-68
2021/12/09 08:18:53;;;;;;;;;;;;;;;1.00;92.71;99324.84;4487736;31;20051;-69
2021/12/09 08:21:22;;;;;;;;;;;;;;;1.09;92.17;99332.69;4473445;31;19979;-68
2021/12/09 08:23:51;;;;;;;;;;;;;;;0.97;92.79;99323.09;4487770;31;20364;-68
2021/12/09 08:26:21;;;;;;;;;;;;;;;1.01;92.80;99318.78;4489486;31;19991;-68
2021/12/09 08:28:49;;;;;;;;;;;;;;;1.03;92.41;99320.56;4496565;31;20035;-68
2021/12/09 08:31:17;;;;;;;;;;;;;;;1.07;91.81;99305.91;4489917;31;20028;-69
2021/12/09 08:33:44;;;;;;;;;;;;;;;0.91;93.09;99297.94;4489516;31;19998;-68
2021/12/09 08:36:32;;;;;;;;;;;;;;;1.05;92.94;99297.22;4496151;31;20066;-68
2021/12/09 08:39:00;;;;;;;;;;;;;;;1.14;92.35;99294.72;4498663;31;20010;-69
2021/12/09 08:41:27;;;;;;;;;;;;;;;1.18;92.41;99301.66;4487604;31;19975;-69
2021/12/09 08:43:55;;;;;;;;;;;;;;;1.36;91.41;99307.00;4486982;31;20006;-68
2021/12/09 08:46:22;;;;;;;;;;;;;;;1.26;92.04;99304.31;4488580;31;20000;-69
2021/12/09 08:48:49;;;;;;;;;;;;;;;1.28;91.24;99289.63;4494541;31;20404;-68
2021/12/09 08:51:17;;;;;;;;;;;;;;;1.24;91.60;99286.16;4495315;31;19999;-70
2021/12/09 08:53:44;;;;;;;;;;;;;;;1.29;92.11;99299.16;4495377;31;20465;-69
2021/12/09 08:56:12;;;;;;;;;;;;;;;1.45;91.58;99285.44;4493989;31;20015;-68
2021/12/09 08:58:39;;;;;;;;;;;;;;;1.55;91.13;99286.34;4495189;31;20021;-69
2021/12/09 09:01:11;;;;;;;;;;;;;;;1.64;90.88;99299.41;4495792;31;20685;-69
2021/12/09 09:03:39;;;;;;;;;;;;;;;1.68;90.68;99294.22;4494569;31;20007;-70
2021/12/09 09:06:08;;;;;;;;;;;;;;;1.65;90.48;99295.94;4494133;31;19984;-68
2021/12/09 09:08:35;;;;;;;;;;;;;;;1.65;91.17;99308.94;4494210;31;19995;-69
2021/12/09 09:11:02;;;;;;;;;;;;;;;1.62;91.06;99295.91;4494502;31;20015;-69
2021/12/09 09:13:30;;;;;;;;;;;;;;;1.55;91.03;99296.75;4495559;31;20038;-69
2021/12/09 09:15:57;;;;;;;;;;;;;;;1.56;91.10;99306.28;4494318;31;20355;-69
2021/12/09 09:18:25;;;;;;;;;;;;;;;1.53;91.43;99298.47;4494430;31;20007;-69
2021/12/09 09:20:52;;;;;;;;;;;;;;;1.57;91.71;99308.00;4495690;31;20008;-69
2021/12/09 09:23:20;;;;;;;;;;;;;;;1.49;91.39;99307.97;4494728;31;20380;-69
2021/12/09 09:25:48;;;;;;;;;;;;;;;1.54;92.11;99316.63;4494024;31;19987;-69
2021/12/09 09:28:16;;;;;;;;;;;;;;;1.70;92.05;99306.34;4494243;31;20028;-69
2021/12/09 09:30:49;;;;;;;;;;;;;;;1.76;91.42;99288.22;4498351;31;19987;-68
2021/12/09 09:33:16;;;;;;;;;;;;;;;1.79;94.72;99290.84;4494259;31;19999;-67
2021/12/09 09:35:44;;;;;;;;;;;;;;;2.01;94.29;99271.91;4494110;31;19982;-67
2021/12/09 09:38:12;;;;;;;;;;;;;;;1.94;92.62;99264.06;4493609;31;19992;-67
2021/12/09 09:40:41;;;;;;;;;;;;;;;2.07;94.39;99247.69;4494532;31;19975;-68
2021/12/09 09:43:27;;;;;;;;;;;;;;;2.39;92.64;99256.44;4496688;31;20052;-67
2021/12/09 09:46:03;;;;;;;;;;;;;;;2.41;91.90;99250.41;4503152;31;19987;-68
2021/12/09 09:48:30;;;;;;;;;;;;;;;2.38;93.21;99248.66;4502986;31;20010;-67
2021/12/09 09:50:58;;;;;;;;;;;;;;;2.34;91.93;99250.38;4503273;31;20027;-68
2021/12/09 09:53:26;;;;;;;;;;;;;;;2.60;93.15;99244.38;4503025;31;19991;-68
2021/12/09 09:55:53;;;;;;;;;;;;;;;2.67;90.71;99224.44;4502509;31;19979;-68
2021/12/09 09:58:20;;;;;;;;;;;;;;;2.79;90.91;99211.44;4502839;31;20027;-67
2021/12/09 10:00:48;;;;;;;;;;;;;;;2.73;89.03;99221.88;4502394;31;20074;-67
2021/12/09 10:03:17;;;;;;;;;;;;;;;2.77;90.23;99214.06;4502612;31;19989;-67
2021/12/09 10:05:46;;;;;;;;;;;;;;;2.97;92.04;99218.38;4502942;31;20087;-69
2021/12/09 10:08:16;;;;;;;;;;;;;;;3.02;87.61;99221.88;4502952;31;19983;-68
2021/12/09 10:10:44;;;;;;;;;;;;;;;3.04;87.56;99202.78;4502809;31;20078;-68
2021/12/09 10:13:13;;;;;;;;;;;;;;;3.03;90.28;99198.44;4502868;31;20366;-68
2021/12/09 10:15:45;;;;;;;;;;;;;;;3.20;88.55;99203.63;4502959;31;20007;-68
2021/12/09 10:18:30;;;;;;;;;;;;;;;3.00;88.46;99188.03;4502899;31;19983;-67
2021/12/09 10:20:57;;;;;;;;;;;;;;;3.07;87.37;99197.59;4502890;31;19998;-67
2021/12/09 10:23:30;;;;;;;;;;;;;;;3.03;89.26;99195.84;4502033;31;19983;-67
2021/12/09 10:26:09;;;;;;;;;;;;;;;3.00;89.33;99188.03;4501846;31;19995;-68
2021/12/09 10:28:40;;;;;;;;;;;;;;;2.91;89.75;99189.78;4502029;31;20372;-68
2021/12/09 10:31:09;;;;;;;;;;;;;;;3.18;87.92;99201.88;4502581;31;20595;-68
2021/12/09 10:34:00;;;;;;;;;;;;;;;3.07;86.96;99209.72;4501940;31;20027;-67
2021/12/09 10:36:41;;;;;;;;;;;;;;;3.04;87.69;99218.41;4502010;31;20440;-67
2021/12/09 10:39:16;;;;;;;;;;;;;;;2.82;88.59;99227.91;4502107;31;19983;-69
2021/12/09 10:41:44;;;;;;;;;;;;;;;2.79;89.45;99227.03;4492319;31;19979;-69
2021/12/09 10:44:12;;;;;;;;;;;;;;;2.76;88.92;99221.88;4486695;31;20065;-68
2021/12/09 10:47:05;;;;;;;;;;;;;;;2.69;89.55;99213.19;4486464;31;19988;-69
2021/12/09 10:49:40;;;;;;;;;;;;;;;2.67;89.75;99219.25;4486835;31;20015;-69
2021/12/09 10:52:21;;;;;;;;;;;;;;;2.55;90.78;99207.09;4486520;31;19983;-69
2021/12/09 10:54:49;;;;;;;;;;;;;;;2.51;90.75;99208.84;4486690;31;19996;-68
2021/12/09 10:57:24;;;;;;;;;;;;;;;2.33;93.44;99209.66;4486520;31;19987;-68
2021/12/09 10:59:55;;;;;;;;;;;;;;;2.43;92.76;99213.12;4485998;31;19992;-69
2021/12/09 11:02:24;;;;;;;;;;;;;;;2.33;92.26;99204.47;4485675;31;20086;-69
2021/12/09 11:05:03;;;;;;;;;;;;;;;2.23;92.84;99213.09;4485765;31;20322;-69
2021/12/09 11:07:31;;;;;;;;;;;;;;;2.12;94.29;99199.19;4485859;31;19987;-68
2021/12/09 11:10:14;;;;;;;;;;;;;;;2.15;93.22;99207.84;4485913;31;20597;-69
2021/12/09 11:12:51;;;;;;;;;;;;;;;2.18;94.50;99204.41;4486210;31;19987;-69
2021/12/09 11:15:20;;;;;;;;;;;;;;;2.19;93.34;99190.56;4486756;31;19992;-68
2021/12/09 11:17:50;;;;;;;;;;;;;;;2.10;94.61;99190.53;4485967;31;19987;-69
2021/12/09 11:20:36;;;;;;;;;;;;;;;2.08;93.05;99180.13;4486318;31;19991;-69
2021/12/09 11:23:39;;;;;;;;;;;;;;;2.06;94.50;99174.06;4486295;31;19964;-68
2021/12/09 11:26:23;;;;;;;;;;;;;;;2.14;93.75;99172.34;4404704;32;20072;-69
2021/12/09 11:28:55;;;;;;;;;;;;;;;2.06;94.33;99160.22;4480129;31;20010;-69
2021/12/09 11:31:25;;;;;;;;;;;;;;;2.25;94.27;99156.78;4485691;31;20006;-68
2021/12/09 11:33:57;;;;;;;;;;;;;;;2.21;93.71;99148.97;4485903;31;19984;-68
2021/12/09 11:36:43;;;;;;;;;;;;;;;2.21;94.04;99162.84;4493254;31;20025;-68
2021/12/09 11:39:19;;;;;;;;;;;;;;;2.22;93.96;99161.09;4493638;31;20026;-69
2021/12/09 11:41:47;;;;;;;;;;;;;;;2.27;93.92;99160.25;4493946;31;20570;-69
2021/12/09 11:44:15;;;;;;;;;;;;;;;2.32;93.24;99153.31;4488035;31;20397;-68
2021/12/09 11:46:44;;;;;;;;;;;;;;;2.22;95.17;99156.78;4485951;31;19975;-68
2021/12/09 11:49:12;;;;;;;;;;;;;;;2.26;94.91;99150.75;4484456;31;19999;-68
2021/12/09 11:51:40;;;;;;;;;;;;;;;2.27;95.29;99146.41;4485556;31;20034;-70
2021/12/09 11:54:08;;;;;;;;;;;;;;;2.29;94.10;99144.66;4485689;31;19980;-68
2021/12/09 12:13:31;;;;;;;;;;;;;;;2.21;97.09;99112.59;4492985;31;20031;-68
2021/12/09 12:16:20;;;;;;;;;;;;;;;2.13;98.47;99105.66;4494814;31;19983;-68
2021/12/09 12:19:02;;;;;;;;;;;;;;;2.25;97.53;99110.00;4495004;31;20669;-68
2021/12/09 12:27:10;;;;;;;;;;;;;;;2.35;94.86;99113.47;4493655;31;19972;-69
2021/12/09 12:41:00;;;;;;;;;;;;;;;2.24;94.98;99123.00;4475019;31;19983;-71
2021/12/09 12:43:36;;;;;;;;;;;;;;;2.25;94.95;99115.19;4475657;31;20536;-69
2021/12/09 12:53:52;;;;;;;;;;;;;;;2.13;95.18;99141.19;4494776;31;20011;-72
2021/12/09 12:56:23;;;;;;;;;;;;;;;2.12;94.99;99145.50;4494267;31;19983;-71
2021/12/09 12:59:16;;;;;;;;;;;;;;;2.02;95.12;99141.16;4488644;31;20054;-71
2021/12/09 13:01:52;;;;;;;;;;;;;;;1.91;95.41;99141.13;4493974;31;20041;-71
2021/12/09 13:10:19;;;;;;;;;;;;;;;1.78;95.60;99122.91;4494362;31;19975;-69
2021/12/09 13:12:56;;;;;;;;;;;;;;;1.82;95.17;99130.69;4495240;31;19983;-68
2021/12/09 13:15:30;;;;;;;;;;;;;;;1.78;95.38;99123.75;4493150;31;19983;-69
2021/12/09 13:18:02;;;;;;;;;;;;;;;1.78;95.31;99115.09;4493470;31;19991;-68
2021/12/09 13:20:35;;;;;;;;;;;;;;;1.64;95.75;99108.13;4492921;31;20035;-68
2021/12/09 13:23:24;;;;;;;;;;;;;;;1.63;95.33;99102.94;4489593;31;20005;-68
2021/12/09 13:26:29;;;;;;;;;;;;;;;1.61;95.69;99099.47;4492736;31;20098;-68
2021/12/09 13:29:20;;;;;;;;;;;;;;;1.50;96.37;99104.63;4485758;31;20010;-68
2021/12/09 13:32:15;;;;;;;;;;;;;;;1.35;97.21;99102.84;4485583;31;19983;-69
2021/12/09 13:35:01;;;;;;;;;;;;;;;1.38;97.22;99100.25;4485538;31;19991;-69
2021/12/09 13:38:03;;;;;;;;;;;;;;;1.45;96.95;99095.97;4485030;31;20022;-69
2021/12/09 13:40:38;;;;;;;;;;;;;;;1.54;96.45;99093.37;4484772;31;19987;-68
2021/12/09 13:46:08;;;;;;;;;;;;;;;1.50;96.97;99095.97;4485059;31;20001;-68
2021/12/09 13:48:48;;;;;;;;;;;;;;;1.38;97.95;99089.88;4484806;31;19995;-69
2021/12/09 13:51:30;;;;;;;;;;;;;;;1.46;97.73;99099.44;4500386;31;20625;-69
2021/12/09 13:54:19;;;;;;;;;;;;;;;1.46;97.58;99095.09;4494615;31;20898;-69
2021/12/09 13:56:46;;;;;;;;;;;;;;;1.47;97.47;99095.97;4485083;31;19983;-69
2021/12/09 13:59:18;;;;;;;;;;;;;;;1.40;97.73;99085.53;4485331;31;20006;-69
2021/12/09 14:01:46;;;;;;;;;;;;;;;1.41;98.82;99082.09;4484744;31;19998;-70
2021/12/09 14:04:18;;;;;;;;;;;;;;;1.44;98.33;99082.09;4485715;31;19975;-69
2021/12/09 14:07:00;;;;;;;;;;;;;;;1.36;98.87;99072.56;4488782;31;20362;-69
2021/12/09 14:09:29;;;;;;;;;;;;;;;1.38;98.44;99071.72;4487280;31;20039;-68